createdAt,value
2019-03-01T00:02:07.805Z,79.09
2019-03-01T00:05:01.861Z,79.80
2019-03-01T00:08:10.587Z,79.83
2019-03-01T00:10:47.740Z,79.39
2019-03-01T00:13:25.236Z,79.53
2019-03-01T00:16:20.608Z,80.00
2019-03-01T00:19:07.195Z,79.27
2019-03-01T00:21:41.695Z,79.24
2019-03-01T00:24:41.893Z,78.66
2019-03-01T00:27:25.132Z,79.59
2019-03-01T00:30:32.861Z,78.56
2019-03-01T00:33:10.008Z,79.40
2019-03-01T00:35:44.453Z,79.55
2019-03-01T00:38:18.965Z,79.92
2019-03-01T00:41:09.641Z,79.77
2019-03-01T00:43:55.383Z,79.87
2019-03-01T00:46:26.705Z,79.76
2019-03-01T00:48:58.023Z,79.98
2019-03-01T00:51:29.425Z,79.75
2019-03-01T00:54:00.745Z,79.78
2019-03-01T00:56:32.129Z,79.77
2019-03-01T00:59:03.470Z,79.64
2019-03-01T01:01:34.789Z,79.54
2019-03-01T01:04:06.139Z,79.33
2019-03-01T01:06:37.488Z,79.72
2019-03-01T01:09:08.861Z,78.94
2019-03-01T01:11:40.234Z,79.05
2019-03-01T01:14:11.506Z,78.88
2019-03-01T01:16:42.810Z,78.90
2019-03-01T01:19:14.139Z,78.96
2019-03-01T01:21:45.452Z,79.16
2019-03-01T01:24:16.823Z,78.07
2019-03-01T01:26:48.301Z,77.58
2019-03-01T01:29:19.667Z,78.08
2019-03-01T01:31:50.991Z,78.01
2019-03-01T01:34:22.426Z,77.61
2019-03-01T01:36:53.766Z,77.04
2019-03-01T01:39:25.122Z,76.81
2019-03-01T01:41:56.577Z,76.83
2019-03-01T01:44:28.064Z,76.84
2019-03-01T01:46:59.411Z,77.91
2019-03-01T01:49:30.819Z,78.17
2019-03-01T01:52:02.165Z,77.37
2019-03-01T01:54:33.521Z,76.66
2019-03-01T01:57:04.819Z,75.51
2019-03-01T01:59:36.073Z,75.30
2019-03-01T02:02:07.441Z,75.06
2019-03-01T02:04:38.759Z,74.78
2019-03-01T02:07:10.130Z,73.76
2019-03-01T02:09:41.521Z,74.11
2019-03-01T02:12:12.917Z,74.47
2019-03-01T02:14:44.290Z,73.76
2019-03-01T02:17:15.653Z,73.67
2019-03-01T02:19:47.035Z,74.32
2019-03-01T02:22:18.347Z,74.28
2019-03-01T02:24:49.713Z,73.34
2019-03-01T02:27:28.942Z,73.81
2019-03-01T02:30:00.533Z,72.83
2019-03-01T02:32:36.525Z,73.93
2019-03-01T02:35:10.689Z,74.81
2019-03-01T02:37:42.003Z,75.40
2019-03-01T02:40:15.032Z,75.86
2019-03-01T02:42:46.427Z,76.00
2019-03-01T02:45:19.507Z,75.89
2019-03-01T02:47:50.877Z,76.34
2019-03-01T02:50:22.299Z,76.43
2019-03-01T02:52:53.678Z,75.60
2019-03-01T02:55:25.086Z,76.02
2019-03-01T02:57:56.461Z,76.04
2019-03-01T03:00:29.491Z,76.03
2019-03-01T03:03:00.871Z,75.96
2019-03-01T03:05:33.876Z,77.20
2019-03-01T03:08:06.767Z,76.76
2019-03-01T03:10:38.205Z,77.06
2019-03-01T03:13:10.955Z,76.82
2019-03-01T03:15:43.909Z,76.39
2019-03-01T03:18:15.281Z,75.52
2019-03-01T03:20:46.661Z,75.94
2019-03-01T03:23:17.997Z,75.97
2019-03-01T03:25:49.398Z,76.05
2019-03-01T03:28:20.771Z,75.48
2019-03-01T03:30:52.161Z,75.43
2019-03-01T03:33:23.554Z,74.97
2019-03-01T03:35:56.281Z,74.98
2019-03-01T03:38:27.671Z,75.23
2019-03-01T03:41:00.690Z,74.72
2019-03-01T03:43:31.922Z,74.82
2019-03-01T03:46:03.192Z,76.19
2019-03-01T03:48:36.234Z,77.10
2019-03-01T03:51:07.686Z,77.58
2019-03-01T03:53:38.933Z,77.96
2019-03-01T03:56:10.286Z,78.56
2019-03-01T03:58:41.700Z,78.23
2019-03-01T04:01:13.150Z,78.19
2019-03-01T04:03:44.513Z,78.88
2019-03-01T04:06:15.920Z,79.28
2019-03-01T04:08:47.330Z,79.96
2019-03-01T04:11:18.671Z,80.71
2019-03-01T04:13:50.086Z,80.76
2019-03-01T04:16:21.518Z,81.00
2019-03-01T04:18:52.835Z,80.72
2019-03-01T04:21:24.264Z,80.98
2019-03-01T04:23:55.794Z,81.44
2019-03-01T04:26:28.182Z,81.59
2019-03-01T04:28:59.547Z,81.32
2019-03-01T04:31:30.946Z,81.36
2019-03-01T04:34:02.210Z,81.16
2019-03-01T04:36:33.557Z,81.70
2019-03-01T04:39:06.169Z,82.09
2019-03-01T04:41:39.195Z,81.76
2019-03-01T04:44:10.574Z,81.95
2019-03-01T04:46:42.002Z,81.59
2019-03-01T04:49:13.345Z,81.41
2019-03-01T04:51:44.741Z,80.59
2019-03-01T04:54:16.146Z,81.10
2019-03-01T04:56:47.787Z,80.82
2019-03-01T04:59:19.179Z,81.00
2019-03-01T05:01:50.566Z,80.92
2019-03-01T05:04:21.911Z,80.70
2019-03-01T05:06:53.323Z,80.01
2019-03-01T05:09:24.646Z,80.48
2019-03-01T05:11:56.014Z,80.69
2019-03-01T05:14:27.362Z,79.88
2019-03-01T05:16:58.634Z,79.97
2019-03-01T05:19:30.120Z,79.90
2019-03-01T05:22:01.429Z,79.98
2019-03-01T05:24:32.818Z,78.99
2019-03-01T05:27:04.209Z,78.61
2019-03-01T05:29:35.577Z,77.55
2019-03-01T05:32:06.904Z,78.06
2019-03-01T05:34:38.352Z,78.06
2019-03-01T05:37:09.670Z,77.47
2019-03-01T05:39:41.005Z,76.61
2019-03-01T05:42:13.000Z,76.45
2019-03-01T05:44:43.742Z,76.40
2019-03-01T05:47:14.786Z,75.68
2019-03-01T05:49:46.172Z,75.90
2019-03-01T05:52:17.564Z,76.06
2019-03-01T05:54:48.906Z,75.68
2019-03-01T05:57:20.240Z,76.37
2019-03-01T05:59:51.599Z,75.68
2019-03-01T06:02:26.161Z,75.21
2019-03-01T06:04:59.106Z,75.83
2019-03-01T06:07:36.359Z,74.46
2019-03-01T06:10:10.792Z,74.43
2019-03-01T06:13:03.189Z,73.62
2019-03-01T06:15:58.887Z,73.02
2019-03-01T06:18:39.134Z,73.99
2019-03-01T06:21:22.713Z,73.12
2019-03-01T06:24:18.287Z,73.48
2019-03-01T06:27:01.496Z,74.21
2019-03-01T06:29:35.991Z,73.44
2019-03-01T06:32:29.969Z,74.01
2019-03-01T06:35:23.005Z,74.43
2019-03-01T06:38:47.200Z,74.63
2019-03-01T06:41:31.587Z,75.16
2019-03-01T06:44:15.342Z,75.13
2019-03-01T06:46:54.204Z,74.73
2019-03-01T06:49:27.220Z,73.85
2019-03-01T06:51:58.556Z,74.05
2019-03-01T06:54:30.563Z,72.99
2019-03-01T06:57:01.298Z,73.92
2019-03-01T06:59:32.379Z,72.97
2019-03-01T07:02:03.765Z,73.46
2019-03-01T07:04:35.186Z,73.46
2019-03-01T07:07:06.569Z,72.69
2019-03-01T07:09:37.898Z,72.70
2019-03-01T07:12:09.417Z,72.52
2019-03-01T07:14:40.767Z,71.77
2019-03-01T07:17:12.106Z,72.25
2019-03-01T07:19:43.487Z,72.08
2019-03-01T07:22:15.800Z,71.63
2019-03-01T07:24:47.144Z,71.95
2019-03-01T07:27:19.700Z,70.85
2019-03-01T07:29:51.588Z,70.35
2019-03-01T07:32:22.974Z,70.18
2019-03-01T07:34:54.413Z,70.38
2019-03-01T07:37:25.736Z,68.11
2019-03-01T07:39:59.120Z,69.08
2019-03-01T07:45:35.700Z,68.79
2019-03-01T07:48:07.048Z,69.68
2019-03-01T07:50:38.236Z,68.85
2019-03-01T07:53:09.440Z,69.25
2019-03-01T07:55:40.651Z,69.08
2019-03-01T07:58:11.884Z,68.73
2019-03-01T08:00:43.295Z,69.14
2019-03-01T08:03:15.158Z,69.27
2019-03-01T08:05:47.556Z,69.59
2019-03-01T08:08:18.929Z,68.63
2019-03-01T08:10:53.500Z,68.86
2019-03-01T08:13:23.378Z,69.15
2019-03-01T08:15:54.782Z,69.26
2019-03-01T08:18:26.258Z,69.84
2019-03-01T08:20:57.797Z,68.89
2019-03-01T08:23:31.751Z,68.74
2019-03-01T08:26:03.522Z,68.66
2019-03-01T08:28:35.193Z,68.29
2019-03-01T08:31:06.578Z,68.93
2019-03-01T08:33:42.349Z,68.77
2019-03-01T08:36:10.981Z,69.10
2019-03-01T08:38:42.247Z,69.29
2019-03-01T08:41:13.667Z,68.98
2019-03-01T08:43:48.112Z,69.26
2019-03-01T08:46:18.065Z,69.48
2019-03-01T08:48:49.439Z,69.77
2019-03-01T08:51:22.650Z,69.11
2019-03-01T08:53:53.781Z,69.02
2019-03-01T08:56:26.392Z,67.70
2019-03-01T08:58:59.204Z,68.08
2019-03-01T09:01:31.780Z,68.06
2019-03-01T09:04:14.114Z,68.20
2019-03-01T09:06:43.442Z,67.32
2019-03-01T09:09:17.548Z,67.00
2019-03-01T09:11:47.953Z,66.43
2019-03-01T09:14:19.295Z,64.78
2019-03-01T09:16:50.660Z,64.75
2019-03-01T09:19:22.385Z,65.26
2019-03-01T09:21:54.976Z,63.73
2019-03-01T09:24:29.162Z,65.10
2019-03-01T09:26:59.330Z,64.45
2019-03-01T09:29:30.550Z,63.56
2019-03-01T09:32:01.773Z,62.32
2019-03-01T09:34:33.088Z,62.14
2019-03-01T09:37:04.469Z,61.80
2019-03-01T09:39:35.698Z,62.30
2019-03-01T09:42:06.885Z,62.09
2019-03-01T09:44:39.299Z,61.11
2019-03-01T09:47:10.761Z,61.60
2019-03-01T09:49:42.071Z,60.20
2019-03-01T09:52:13.317Z,61.55
2019-03-01T09:54:44.899Z,62.07
2019-03-01T09:57:16.509Z,62.25
2019-03-01T09:59:47.366Z,63.09
2019-03-01T10:02:18.458Z,62.07
2019-03-01T10:04:49.960Z,61.56
2019-03-01T10:07:21.223Z,61.91
2019-03-01T10:09:52.375Z,62.07
2019-03-01T10:12:23.743Z,63.28
2019-03-01T10:14:54.986Z,62.75
2019-03-01T10:17:26.316Z,63.33
2019-03-01T10:19:57.622Z,63.18
2019-03-01T10:22:39.243Z,62.80
2019-03-01T10:25:13.236Z,62.13
2019-03-01T10:27:44.454Z,62.30
2019-03-01T10:30:21.097Z,62.43
2019-03-01T10:32:52.358Z,62.28
2019-03-01T10:35:23.690Z,63.49
2019-03-01T10:37:54.982Z,63.69
2019-03-01T10:40:27.473Z,65.17
2019-03-01T10:42:58.692Z,65.81
2019-03-01T10:45:30.707Z,67.24
2019-03-01T10:48:01.888Z,67.52
2019-03-01T10:50:33.229Z,67.12
2019-03-01T10:53:04.603Z,67.32
2019-03-01T10:55:36.055Z,67.66
2019-03-01T10:58:07.304Z,67.73
2019-03-01T11:00:38.662Z,66.86
2019-03-01T11:03:10.024Z,65.75
2019-03-01T11:05:41.295Z,66.04
2019-03-01T11:08:12.558Z,66.52
2019-03-01T11:10:43.841Z,66.81
2019-03-01T11:13:18.300Z,65.96
2019-03-01T11:15:49.621Z,65.33
2019-03-01T11:18:20.939Z,65.38
2019-03-01T11:20:52.260Z,63.57
2019-03-01T11:23:23.562Z,62.53
2019-03-01T11:25:54.847Z,61.76
2019-03-01T11:28:26.124Z,60.91
2019-03-01T11:30:57.850Z,59.53
2019-03-01T11:33:29.084Z,60.22
2019-03-01T11:36:00.351Z,60.64
2019-03-01T11:38:31.635Z,61.54
2019-03-01T11:41:04.313Z,61.51
2019-03-01T11:43:36.607Z,62.26
2019-03-01T11:46:07.904Z,63.62
2019-03-01T11:48:39.176Z,63.67
2019-03-01T11:51:10.493Z,63.20
2019-03-01T11:53:42.185Z,63.37
2019-03-01T11:56:13.693Z,62.92
2019-03-01T11:58:44.902Z,63.36
2019-03-01T12:01:17.394Z,63.84
2019-03-01T12:03:49.209Z,63.55
2019-03-01T12:06:20.340Z,63.34
2019-03-01T12:08:51.571Z,61.84
2019-03-01T12:11:22.811Z,62.98
2019-03-01T12:13:54.197Z,62.51
2019-03-01T12:16:25.466Z,62.48
2019-03-01T12:18:56.674Z,62.71
2019-03-01T12:21:27.884Z,62.18
2019-03-01T12:23:59.209Z,62.67
2019-03-01T12:26:30.457Z,63.02
2019-03-01T12:29:01.661Z,63.93
2019-03-01T12:31:32.919Z,62.88
2019-03-01T12:34:04.173Z,62.52
2019-03-01T12:36:35.513Z,63.26
2019-03-01T12:39:07.498Z,63.35
2019-03-01T12:41:40.186Z,63.47
2019-03-01T12:44:11.439Z,63.30
2019-03-01T12:46:43.774Z,64.09
2019-03-01T12:49:14.981Z,63.80
2019-03-01T12:51:46.225Z,63.26
2019-03-01T12:54:17.708Z,64.09
2019-03-01T12:56:49.009Z,64.10
2019-03-01T12:59:20.280Z,64.83
2019-03-01T13:01:51.495Z,64.82
2019-03-01T13:04:22.783Z,65.11
2019-03-01T13:06:54.085Z,65.24
2019-03-01T13:09:26.472Z,65.71
2019-03-01T13:11:58.006Z,66.50
2019-03-01T13:14:29.360Z,66.08
2019-03-01T13:17:01.767Z,65.99
2019-03-01T13:19:34.040Z,67.30
2019-03-01T13:22:05.436Z,66.60
2019-03-01T13:24:36.829Z,66.99
2019-03-01T13:27:08.235Z,66.61
2019-03-01T13:29:39.501Z,66.91
2019-03-01T13:32:10.720Z,66.03
2019-03-01T13:34:41.979Z,66.25
2019-03-01T13:37:19.290Z,66.09
2019-03-01T13:39:48.603Z,65.67
2019-03-01T13:42:20.217Z,65.90
2019-03-01T13:44:51.432Z,66.22
2019-03-01T13:47:22.659Z,66.48
2019-03-01T13:49:53.993Z,66.11
2019-03-01T13:52:26.740Z,65.81
2019-03-01T13:54:59.222Z,66.01
2019-03-01T13:57:30.581Z,65.61
2019-03-01T14:00:03.200Z,65.36
2019-03-01T14:02:35.720Z,65.41
2019-03-01T14:05:08.834Z,65.65
2019-03-01T14:07:40.150Z,66.09
2019-03-01T14:10:13.922Z,65.99
2019-03-01T14:12:45.223Z,65.68
2019-03-01T14:15:17.958Z,66.27
2019-03-01T14:17:49.243Z,66.45
2019-03-01T14:20:22.622Z,66.95
2019-03-01T14:22:54.079Z,67.82
2019-03-01T14:25:25.489Z,67.13
2019-03-01T14:27:56.886Z,67.62
2019-03-01T14:30:30.277Z,67.67
2019-03-01T14:33:01.516Z,68.09
2019-03-01T14:35:32.953Z,68.48
2019-03-01T14:38:04.679Z,68.60
2019-03-01T14:40:36.085Z,68.63
2019-03-01T14:43:07.547Z,68.07
2019-03-01T14:45:41.729Z,68.36
2019-03-01T14:48:12.111Z,68.29
2019-03-01T14:50:43.518Z,68.96
2019-03-01T14:53:14.957Z,68.75
2019-03-01T14:55:58.955Z,68.77
2019-03-01T14:58:37.413Z,68.62
2019-03-01T15:01:27.703Z,68.77
2019-03-01T15:03:59.262Z,69.06
2019-03-01T15:06:30.711Z,68.61
2019-03-01T15:09:01.980Z,68.69
2019-03-01T15:11:34.894Z,68.95
2019-03-01T15:14:12.078Z,68.78
2019-03-01T15:16:43.370Z,68.44
2019-03-01T15:19:12.506Z,69.49
2019-03-01T15:21:43.979Z,69.41
2019-03-01T15:24:15.407Z,69.86
2019-03-01T15:26:46.814Z,69.86
2019-03-01T15:29:18.254Z,70.10
2019-03-01T15:31:51.099Z,70.36
2019-03-01T15:34:24.079Z,71.20
2019-03-01T15:36:56.803Z,70.26
2019-03-01T15:39:28.246Z,71.53
2019-03-01T15:41:59.629Z,71.42
2019-03-01T15:44:31.146Z,71.42
2019-03-01T15:47:02.548Z,70.92
2019-03-01T15:49:34.027Z,71.35
2019-03-01T15:52:05.426Z,71.42
2019-03-01T15:54:36.832Z,71.28
2019-03-01T15:57:08.405Z,70.80
2019-03-01T15:59:39.832Z,70.52
2019-03-01T16:02:11.210Z,70.62
2019-03-01T16:04:42.587Z,70.72
2019-03-01T16:07:14.064Z,70.30
2019-03-01T16:09:45.485Z,70.56
2019-03-01T16:12:16.945Z,71.09
2019-03-01T16:14:48.385Z,71.23
2019-03-01T16:17:24.350Z,70.99
2019-03-01T16:19:54.135Z,70.80
2019-03-01T16:22:25.696Z,71.48
2019-03-01T16:24:57.165Z,71.24
2019-03-01T16:27:28.603Z,71.88
2019-03-01T16:30:00.017Z,71.75
2019-03-01T16:32:31.468Z,72.31
2019-03-01T16:35:02.911Z,72.47
2019-03-01T16:37:34.325Z,73.13
2019-03-01T16:40:11.341Z,72.48
2019-03-01T16:42:42.946Z,73.20
2019-03-01T16:45:17.750Z,73.32
2019-03-01T16:47:48.707Z,73.21
2019-03-01T16:50:21.288Z,73.43
2019-03-01T16:52:52.683Z,73.43
2019-03-01T16:55:28.841Z,72.77
2019-03-01T16:58:06.770Z,73.21
2019-03-01T17:00:35.932Z,73.04
2019-03-01T17:03:09.273Z,73.62
2019-03-01T17:05:40.759Z,73.43
2019-03-01T17:08:12.202Z,72.71
2019-03-01T17:10:43.653Z,72.17
2019-03-01T17:13:15.096Z,72.02
2019-03-01T17:15:48.449Z,72.01
2019-03-01T17:18:19.653Z,70.66
2019-03-01T17:20:51.249Z,71.32
2019-03-01T17:23:23.366Z,71.72
2019-03-01T17:25:54.846Z,71.14
2019-03-01T17:28:27.810Z,71.04
2019-03-01T17:30:59.202Z,71.00
2019-03-01T17:33:31.668Z,70.76
2019-03-01T17:36:03.096Z,70.71
2019-03-01T17:38:34.417Z,70.21
2019-03-01T17:41:09.330Z,71.09
2019-03-01T17:43:39.032Z,71.58
2019-03-01T17:46:10.442Z,71.17
2019-03-01T17:48:41.778Z,71.21
2019-03-01T17:51:13.145Z,70.96
2019-03-01T17:53:46.426Z,70.00
2019-03-01T17:56:21.927Z,70.68
2019-03-01T17:58:51.977Z,70.82
2019-03-01T18:01:23.363Z,70.62
2019-03-01T18:03:57.994Z,70.75
2019-03-01T18:06:29.328Z,70.89
2019-03-01T18:09:00.781Z,71.71
2019-03-01T18:11:33.737Z,71.08
2019-03-01T18:14:05.115Z,70.37
2019-03-01T18:16:36.521Z,70.39
2019-03-01T18:19:07.900Z,70.30
2019-03-01T18:21:39.416Z,70.04
2019-03-01T18:24:11.101Z,69.77
2019-03-01T18:26:44.002Z,69.58
2019-03-01T18:29:15.506Z,68.94
2019-03-01T18:31:46.903Z,69.58
2019-03-01T18:34:18.337Z,68.95
2019-03-01T18:36:49.773Z,68.77
2019-03-01T18:39:21.576Z,68.40
2019-03-01T18:41:59.333Z,68.32
2019-03-01T18:44:30.798Z,68.26
2019-03-01T18:47:02.289Z,68.08
2019-03-01T18:49:33.621Z,68.07
2019-03-01T18:52:17.655Z,68.14
2019-03-01T18:54:49.766Z,66.33
2019-03-01T18:57:21.311Z,67.57
2019-03-01T18:59:52.537Z,67.46
2019-03-01T19:02:24.335Z,67.18
2019-03-01T19:04:56.794Z,67.47
2019-03-01T19:07:28.706Z,67.43
2019-03-01T19:10:01.281Z,67.67
2019-03-01T19:12:33.377Z,67.86
2019-03-01T19:15:06.808Z,67.80
2019-03-01T19:17:40.746Z,67.77
2019-03-01T19:20:13.906Z,68.54
2019-03-01T19:22:45.332Z,68.15
2019-03-01T19:25:16.830Z,68.04
2019-03-01T19:27:50.744Z,67.73
2019-03-01T19:30:24.377Z,68.36
2019-03-01T19:32:58.822Z,68.34
2019-03-01T19:35:30.136Z,67.63
2019-03-01T19:38:01.474Z,67.82
2019-03-01T19:40:37.293Z,67.99
2019-03-01T19:43:15.370Z,67.81
2019-03-01T19:45:47.852Z,68.04
2019-03-01T19:48:19.186Z,67.37
2019-03-01T19:50:50.819Z,67.96
2019-03-01T19:53:25.467Z,67.25
2019-03-01T19:55:55.245Z,67.62
2019-03-01T19:58:26.566Z,67.67
2019-03-01T20:00:57.986Z,67.60
2019-03-01T20:03:29.409Z,67.14
2019-03-01T20:06:00.795Z,67.45
2019-03-01T20:08:32.195Z,67.22
2019-03-01T20:11:03.528Z,66.99
2019-03-01T20:13:35.950Z,67.00
2019-03-01T20:16:07.240Z,66.01
2019-03-01T20:18:41.745Z,66.48
2019-03-01T20:21:11.664Z,66.26
2019-03-01T20:23:43.050Z,65.89
2019-03-01T20:26:14.408Z,66.66
2019-03-01T20:28:47.655Z,66.03
2019-03-01T20:31:18.634Z,66.92
2019-03-01T20:33:49.924Z,66.79
2019-03-01T20:36:21.134Z,66.11
2019-03-01T20:38:52.384Z,66.46
2019-03-01T20:41:23.674Z,66.53
2019-03-01T20:43:54.966Z,66.01
2019-03-01T20:46:26.301Z,65.65
2019-03-01T20:49:00.659Z,65.81
2019-03-01T20:51:32.083Z,65.67
2019-03-01T20:54:03.319Z,65.70
2019-03-01T20:56:34.618Z,65.86
2019-03-01T20:59:05.880Z,65.54
2019-03-01T21:01:38.181Z,64.90
2019-03-01T21:04:10.776Z,66.15
2019-03-01T21:06:42.023Z,66.46
2019-03-01T21:09:13.191Z,66.02
2019-03-01T21:11:44.502Z,66.54
2019-03-01T21:14:15.693Z,66.75
2019-03-01T21:16:47.067Z,67.23
2019-03-01T21:19:18.273Z,68.05
2019-03-01T21:21:49.595Z,67.79
2019-03-01T21:24:22.893Z,68.10
2019-03-01T21:26:53.826Z,68.59
2019-03-01T21:29:25.062Z,68.43
2019-03-01T21:31:56.350Z,68.70
2019-03-01T21:34:27.577Z,68.65
2019-03-01T21:37:02.342Z,69.36
2019-03-01T21:39:31.845Z,69.23
2019-03-01T21:42:03.070Z,68.94
2019-03-01T21:44:34.195Z,68.70
2019-03-01T21:47:06.969Z,68.77
2019-03-01T21:49:38.836Z,68.31
2019-03-01T21:52:10.149Z,68.23
2019-03-01T21:54:41.496Z,68.01
2019-03-01T21:57:12.987Z,68.44
2019-03-01T21:59:44.376Z,68.70
2019-03-01T22:02:17.069Z,69.26
2019-03-01T22:04:48.880Z,69.20
2019-03-01T22:07:21.569Z,68.59
2019-03-01T22:09:52.979Z,69.14
2019-03-01T22:12:24.714Z,69.26
2019-03-01T22:14:56.933Z,69.41
2019-03-01T22:17:28.213Z,69.23
2019-03-01T22:19:59.539Z,69.60
2019-03-01T22:22:30.857Z,69.94
2019-03-01T22:25:03.269Z,70.44
2019-03-01T22:27:34.906Z,71.06
2019-03-01T22:30:12.261Z,70.32
2019-03-01T22:32:45.444Z,70.68
2019-03-01T22:35:16.760Z,71.47
2019-03-01T22:37:48.193Z,72.09
2019-03-01T22:40:19.575Z,71.89
2019-03-01T22:42:51.181Z,72.25
2019-03-01T22:45:22.617Z,71.59
2019-03-01T22:47:53.966Z,72.66
2019-03-01T22:50:25.351Z,73.26
2019-03-01T22:52:56.733Z,74.05
2019-03-01T22:55:28.102Z,73.41
2019-03-01T22:58:00.869Z,74.40
2019-03-01T23:00:57.937Z,73.90
2019-03-01T23:03:28.634Z,73.88
2019-03-01T23:06:00.030Z,73.76
2019-03-01T23:08:31.704Z,73.41
2019-03-01T23:11:04.449Z,73.13
2019-03-01T23:13:35.860Z,73.17
2019-03-01T23:16:07.269Z,72.44
2019-03-01T23:18:40.549Z,73.12
2019-03-01T23:21:11.779Z,72.52
2019-03-01T23:23:43.173Z,72.22
2019-03-01T23:26:14.533Z,72.72
2019-03-01T23:28:45.836Z,72.53
2019-03-01T23:31:18.255Z,73.03
2019-03-01T23:33:49.561Z,73.18
2019-03-01T23:36:20.919Z,73.12
2019-03-01T23:38:52.518Z,73.03
2019-03-01T23:41:23.953Z,73.22
2019-03-01T23:43:55.292Z,73.71
2019-03-01T23:46:28.562Z,73.21
2019-03-01T23:49:06.273Z,73.23
2019-03-01T23:51:33.736Z,73.54
2019-03-01T23:54:05.655Z,73.75
2019-03-01T23:56:38.832Z,73.56
2019-03-01T23:59:10.255Z,73.90
